Time;durP1;ratioP1;P1;durP2;ratioP2;P2;SDS_P1;SDS_P2;PMS_P1;PMS_P2;Temp;Humidity;BMP_temperature;BMP_pressure;BME280_temperature;BME280_humidity;BME280_pressure;Samples;Min_cycle;Max_cycle;Signal;HPM_P1;HPM_P2
2021/07/12 00:00:28;;;;;;;38.20;34.40;;;;;;;17.15;nan;98917.28;2088680;28;20453;-72
2021/07/12 00:01:30;;;;;;;40.63;36.43;;;;;;;17.10;nan;98923.69;2080553;28;20453;-72
2021/07/12 00:02:31;;;;;;;41.90;36.10;;;;;;;17.15;nan;98920.00;2088572;28;20449;-72
2021/07/12 00:03:33;;;;;;;39.10;35.30;;;;;;;17.16;nan;98916.16;2088318;28;20596;-72
2021/07/12 00:04:33;;;;;;;38.73;34.60;;;;;;;17.31;nan;98920.81;2080140;28;20235;-72
2021/07/12 00:05:35;;;;;;;40.17;36.30;;;;;;;17.30;nan;98919.25;2088362;28;20541;-72
2021/07/12 00:06:36;;;;;;;38.43;34.77;;;;;;;17.21;nan;98919.41;2089072;28;20235;-72
2021/07/12 00:07:37;;;;;;;37.73;33.93;;;;;;;17.18;nan;98924.69;2088745;28;20477;-73
2021/07/12 00:08:38;;;;;;;47.43;35.97;;;;;;;17.13;nan;98916.84;2088967;28;20237;-72
2021/07/12 00:09:40;;;;;;;39.43;35.53;;;;;;;17.07;nan;98910.13;2088475;28;20496;-72
2021/07/12 00:10:41;;;;;;;39.13;35.10;;;;;;;17.01;nan;98920.34;2076031;28;20239;-72
2021/07/12 00:11:42;;;;;;;40.73;36.70;;;;;;;16.98;nan;98920.28;2080138;28;20458;-72
2021/07/12 00:12:44;;;;;;;40.40;36.50;;;;;;;16.94;nan;98920.97;2088221;28;20766;-72
2021/07/12 00:13:47;;;;;;;41.23;36.83;;;;;;;16.90;nan;98924.66;2073074;28;20846;-71
2021/07/12 00:14:49;;;;;;;42.37;38.10;;;;;;;16.84;nan;98915.25;2088049;28;20460;-72
2021/07/12 00:15:51;;;;;;;47.40;39.37;;;;;;;16.82;nan;98912.88;2088505;28;21054;-72
2021/07/12 00:16:52;;;;;;;43.80;38.77;;;;;;;16.87;nan;98911.88;2087913;28;20468;-73
2021/07/12 00:17:54;;;;;;;41.83;37.53;;;;;;;16.94;nan;98920.19;2088398;28;20964;-72
2021/07/12 00:18:55;;;;;;;41.83;37.43;;;;;;;16.93;nan;98922.06;2089022;28;20233;-72
2021/07/12 00:19:57;;;;;;;42.30;37.97;;;;;;;17.00;nan;98918.00;2088896;28;20476;-71
2021/07/12 00:20:57;;;;;;;43.20;38.63;;;;;;;17.02;nan;98910.34;2088970;28;20313;-71
2021/07/12 00:21:59;;;;;;;40.77;36.43;;;;;;;17.07;nan;98907.44;2088986;28;20959;-72
2021/07/12 00:23:00;;;;;;;43.50;38.90;;;;;;;17.07;nan;98907.44;2088987;28;20676;-72
2021/07/12 00:24:02;;;;;;;42.87;38.30;;;;;;;17.11;nan;98905.59;2088270;28;20812;-72
2021/07/12 00:25:04;;;;;;;44.90;39.87;;;;;;;17.09;nan;98900.56;2088334;28;20959;-72
2021/07/12 00:26:05;;;;;;;43.20;38.50;;;;;;;17.03;nan;98901.13;2088233;28;20959;-72
2021/07/12 00:27:06;;;;;;;43.40;38.80;;;;;;;17.05;nan;98907.00;2088262;28;20499;-72
2021/07/12 00:28:08;;;;;;;49.20;37.93;;;;;;;17.01;nan;98906.88;2087797;28;20496;-73
2021/07/12 00:29:08;;;;;;;41.13;36.80;;;;;;;16.97;nan;98908.72;2079877;28;20693;-72
2021/07/12 00:30:17;;;;;;;44.07;39.37;;;;;;;16.89;nan;98912.31;2088261;28;20847;-73
2021/07/12 00:31:18;;;;;;;45.27;40.53;;;;;;;16.83;nan;98916.38;2088218;28;20222;-73
2021/07/12 00:32:20;;;;;;;45.00;40.27;;;;;;;16.75;nan;98911.91;2088165;28;20453;-72
2021/07/12 00:33:21;;;;;;;47.57;40.07;;;;;;;16.70;nan;98912.94;2088240;28;20301;-72
2021/07/12 00:34:23;;;;;;;47.07;40.13;;;;;;;16.67;nan;98916.25;2088519;28;20461;-71
2021/07/12 00:35:25;;;;;;;44.50;39.83;;;;;;;16.62;nan;98911.91;2088806;28;20465;-73
2021/07/12 00:36:27;;;;;;;46.53;41.53;;;;;;;16.59;nan;98904.50;2088872;28;20485;-72
2021/07/12 00:37:27;;;;;;;61.47;42.20;;;;;;;16.54;nan;98893.94;2088748;28;20456;-72
2021/07/12 00:38:29;;;;;;;46.43;41.43;;;;;;;16.56;nan;98901.69;2088764;28;20525;-72
2021/07/12 00:39:31;;;;;;;57.70;43.13;;;;;;;16.56;nan;98907.84;2088153;28;20230;-72
2021/07/12 00:40:32;;;;;;;48.47;42.50;;;;;;;16.54;nan;98914.72;2088091;28;20480;-72
2021/07/12 00:41:34;;;;;;;49.00;43.90;;;;;;;16.52;nan;98909.66;2087988;28;20230;-72
2021/07/12 00:42:37;;;;;;;49.10;42.90;;;;;;;16.55;nan;98911.69;2085875;28;20446;-72
2021/07/12 00:43:38;;;;;;;48.63;42.20;;;;;;;16.53;nan;98905.06;2087754;28;20465;-73
2021/07/12 00:44:40;;;;;;;47.17;42.20;;;;;;;16.52;nan;98914.28;2088964;28;20485;-72
2021/07/12 00:45:42;;;;;;;53.97;44.23;;;;;;;16.48;nan;98918.75;2087997;28;20975;-72
2021/07/12 00:46:44;;;;;;;45.73;40.90;;;;;;;16.53;nan;98915.84;2088065;28;20455;-72
2021/07/12 00:47:45;;;;;;;55.13;43.63;;;;;;;16.62;nan;98919.19;2088003;28;20450;-72
2021/07/12 00:48:47;;;;;;;60.53;47.23;;;;;;;16.67;nan;98927.03;2087362;28;20458;-72
2021/07/12 00:49:48;;;;;;;46.63;40.50;;;;;;;16.71;nan;98917.19;2088043;28;20453;-72
2021/07/12 00:50:50;;;;;;;47.33;42.20;;;;;;;16.76;nan;98925.03;2087728;28;20519;-73
2021/07/12 00:51:52;;;;;;;53.80;44.20;;;;;;;16.76;nan;98925.03;2088086;28;20223;-72
2021/07/12 00:52:54;;;;;;;54.80;41.63;;;;;;;16.80;nan;98922.44;2079516;28;20558;-72
2021/07/12 00:53:55;;;;;;;52.63;43.53;;;;;;;16.76;nan;98916.94;2079982;28;20466;-72
2021/07/12 00:55:13;;;;;;;51.50;42.90;;;;;;;16.67;nan;98902.78;2080683;28;20541;-72
2021/07/12 00:56:15;;;;;;;50.00;42.90;;;;;;;16.59;nan;98907.19;2080746;28;20883;-72
2021/07/12 00:57:17;;;;;;;49.83;42.10;;;;;;;16.55;nan;98908.19;2079933;28;20447;-72
2021/07/12 00:58:21;;;;;;;49.67;42.90;;;;;;;16.52;nan;98898.13;2079704;28;20455;-72
2021/07/12 00:59:22;;;;;;;54.97;43.53;;;;;;;16.46;nan;98897.56;2087586;28;20458;-73
2021/07/12 01:00:26;;;;;;;52.30;43.00;;;;;;;16.45;nan;98892.50;2087954;28;20484;-73
2021/07/12 01:01:29;;;;;;;57.78;43.35;;;;;;;16.43;nan;98894.75;2079910;28;20454;-71
2021/07/12 01:02:31;;;;;;;57.72;43.30;;;;;;;16.40;nan;98896.19;2079774;28;20224;-72
2021/07/12 01:03:32;;;;;;;50.43;43.63;;;;;;;16.38;nan;98895.75;2079767;28;20239;-72
2021/07/12 01:04:34;;;;;;;55.60;44.17;;;;;;;16.36;nan;98896.09;2088125;28;20498;-73
2021/07/12 01:05:36;;;;;;;57.95;43.92;;;;;;;16.33;nan;98899.47;2088041;28;20323;-72
2021/07/12 01:06:39;;;;;;;49.57;41.67;;;;;;;16.35;nan;98899.94;2087435;28;20601;-72
2021/07/12 01:07:41;;;;;;;60.60;46.33;;;;;;;16.32;nan;98895.19;2079832;28;20458;-72
2021/07/12 01:08:44;;;;;;;61.63;45.57;;;;;;;16.32;nan;98900.59;2087955;28;20456;-72
2021/07/12 01:09:45;;;;;;;56.70;44.93;;;;;;;16.30;nan;98894.75;2087860;28;20498;-72
2021/07/12 01:10:54;;;;;;;55.60;44.53;;;;;;;16.28;nan;98901.59;2079448;28;20447;-72
2021/07/12 01:11:59;;;;;;;53.07;43.23;;;;;;;16.30;nan;98896.66;2087633;28;20484;-72
2021/07/12 01:13:15;;;;;;;52.43;43.83;;;;;;;16.31;nan;98890.16;2088622;28;20503;-72
2021/07/12 01:14:26;;;;;;;55.07;44.23;;;;;;;16.33;nan;98893.28;2088233;28;20449;-72
2021/07/12 01:16:08;;;;;;;51.03;41.28;;;;;;;16.52;nan;98903.50;2078457;28;20791;-72
2021/07/12 01:17:19;;;;;;;50.97;42.73;;;;;;;16.59;nan;98899.13;2078472;28;20250;-72
2021/07/12 01:18:30;;;;;;;54.73;43.90;;;;;;;16.58;nan;98899.44;2079710;28;20478;-72
2021/07/12 01:20:21;;;;;;;50.42;43.05;;;;;;;16.54;nan;98901.25;2087606;28;20461;-72
2021/07/12 01:22:11;;;;;;;51.20;42.17;;;;;;;16.52;nan;98903.50;2087565;28;20271;-73
2021/07/12 01:23:18;;;;;;;48.67;42.60;;;;;;;16.43;nan;98895.53;2058299;28;20236;-72
2021/07/12 01:24:50;;;;;;;53.13;43.47;;;;;;;16.38;nan;98896.53;2055781;28;20461;-72
2021/07/12 01:26:22;;;;;;;51.60;41.70;;;;;;;16.36;nan;98900.72;2085953;28;20461;-72
2021/07/12 01:27:56;;;;;;;52.93;42.00;;;;;;;16.31;nan;98899.00;2080915;28;20473;-73
2021/07/12 01:29:14;;;;;;;47.00;41.10;;;;;;;16.30;nan;98891.28;2083563;28;20930;-72
2021/07/12 01:30:17;;;;;;;50.65;42.15;;;;;;;16.25;nan;98889.63;2087774;28;20939;-72
2021/07/12 01:31:38;;;;;;;50.97;42.33;;;;;;;16.26;nan;98893.09;2087801;28;20302;-72
2021/07/12 01:33:04;;;;;;;53.95;41.70;;;;;;;16.25;nan;98889.63;2081696;28;20481;-73
2021/07/12 01:34:07;;;;;;;45.50;39.25;;;;;;;16.32;nan;98892.50;2074884;28;20230;-72
2021/07/12 01:35:16;;;;;;;45.53;39.20;;;;;;;16.65;nan;98894.25;2079531;28;20223;-72
2021/07/12 01:36:23;;;;;;;41.40;36.27;;;;;;;16.77;nan;98896.97;2080749;28;20493;-72
2021/07/12 01:37:34;;;;;;;43.92;38.97;;;;;;;16.88;nan;98905.38;2079742;28;20463;-72
2021/07/12 01:38:41;;;;;;;46.30;41.05;;;;;;;16.81;nan;98905.94;2080744;28;20230;-72
2021/07/12 01:39:48;;;;;;;47.63;39.50;;;;;;;16.79;nan;98907.41;2087264;28;20272;-72
2021/07/12 01:40:55;;;;;;;44.93;40.10;;;;;;;16.70;nan;98910.22;2087845;28;20441;-72
2021/07/12 01:41:59;;;;;;;42.47;37.87;;;;;;;16.64;nan;98900.78;2087445;28;20457;-72
2021/07/12 01:43:03;;;;;;;45.33;38.90;;;;;;;16.66;nan;98904.69;2087822;28;20797;-72
2021/07/12 01:44:09;;;;;;;47.60;38.83;;;;;;;16.66;nan;98901.22;2079857;28;20465;-72
2021/07/12 01:45:13;;;;;;;43.77;36.57;;;;;;;16.76;nan;98905.38;2087350;28;20503;-72
2021/07/12 01:46:22;;;;;;;48.17;39.87;;;;;;;16.72;nan;98907.19;2079837;28;20817;-72
2021/07/12 01:47:34;;;;;;;48.87;39.43;;;;;;;16.76;nan;98900.00;2080076;28;20482;-72
2021/07/12 01:48:45;;;;;;;47.30;40.77;;;;;;;16.66;nan;98904.69;2080775;28;20473;-72
2021/07/12 01:49:56;;;;;;;54.43;40.50;;;;;;;16.63;nan;98902.69;2087766;28;20457;-72
2021/07/12 01:50:59;;;;;;;44.25;39.40;;;;;;;16.59;nan;98904.50;2080092;28;20462;-73
2021/07/12 01:52:05;;;;;;;44.33;39.50;;;;;;;16.59;nan;98898.31;2087829;28;20226;-72
2021/07/12 01:53:12;;;;;;;44.80;38.80;;;;;;;16.62;nan;98903.03;2087367;28;20978;-73
2021/07/12 01:54:18;;;;;;;48.50;41.40;;;;;;;16.62;nan;98901.13;2080287;28;20453;-72
2021/07/12 01:55:24;;;;;;;50.50;41.07;;;;;;;16.61;nan;98901.47;2087762;28;20480;-72
2021/07/12 01:56:30;;;;;;;48.43;40.83;;;;;;;16.57;nan;98897.88;2087399;28;20788;-72
2021/07/12 01:57:35;;;;;;;46.17;39.13;;;;;;;16.66;nan;98898.53;2087861;28;20449;-72
2021/07/12 01:58:44;;;;;;;51.33;41.77;;;;;;;16.62;nan;98892.25;2087293;28;20889;-72
2021/07/12 01:59:52;;;;;;;44.57;39.47;;;;;;;16.76;nan;98900.00;2080111;28;20458;-72
2021/07/12 02:00:54;;;;;;;48.40;39.53;;;;;;;16.86;nan;98889.53;2080253;28;20534;-72
2021/07/12 02:01:57;;;;;;;57.70;41.30;;;;;;;16.88;nan;98895.38;2079613;28;20550;-71
2021/07/12 02:03:01;;;;;;;49.40;40.37;;;;;;;16.98;nan;98896.00;2088860;28;20487;-73
2021/07/12 02:04:11;;;;;;;47.85;39.97;;;;;;;16.98;nan;98894.09;2081487;28;20454;-72
2021/07/12 02:05:17;;;;;;;51.53;43.43;;;;;;;17.00;nan;98886.44;2089302;28;20773;-72
2021/07/12 02:06:21;;;;;;;60.57;46.63;;;;;;;17.02;nan;98883.41;2089125;28;20469;-72
2021/07/12 02:07:23;;;;;;;50.87;41.77;;;;;;;17.00;nan;98888.34;2089155;28;20465;-73
2021/07/12 02:08:25;;;;;;;54.57;44.53;;;;;;;16.97;nan;98884.44;2089237;28;20514;-73
2021/07/12 02:09:28;;;;;;;56.00;44.40;;;;;;;16.91;nan;98883.91;2081612;28;20462;-72
2021/07/12 02:10:32;;;;;;;49.97;42.33;;;;;;;16.98;nan;98887.94;2081208;28;20450;-72
2021/07/12 02:11:37;;;;;;;50.63;43.13;;;;;;;17.13;nan;98884.50;2089161;28;20483;-72
2021/07/12 02:12:40;;;;;;;54.85;44.30;;;;;;;17.12;nan;98888.34;2080807;28;20494;-72
2021/07/12 02:13:43;;;;;;;58.13;47.07;;;;;;;17.15;nan;98879.56;2089348;28;28473;-72
2021/07/12 02:14:50;;;;;;;65.77;46.53;;;;;;;17.10;nan;98879.78;2089312;28;20475;-72
2021/07/12 02:15:55;;;;;;;66.33;47.17;;;;;;;17.02;nan;98886.09;2080824;28;20445;-72
2021/07/12 02:17:06;;;;;;;58.93;43.43;;;;;;;17.02;nan;98884.19;2089201;28;20461;-71
2021/07/12 02:18:09;;;;;;;57.00;43.03;;;;;;;17.01;nan;98881.84;2081084;28;20458;-73
2021/07/12 02:19:18;;;;;;;51.43;41.50;;;;;;;16.99;nan;98890.28;2082182;28;20525;-71
2021/07/12 02:20:26;;;;;;;56.67;44.27;;;;;;;17.01;nan;98882.63;2088815;28;20845;-72
2021/07/12 02:21:32;;;;;;;62.87;43.00;;;;;;;17.00;nan;98888.34;2089205;28;20449;-72
2021/07/12 02:22:36;;;;;;;58.73;43.30;;;;;;;16.94;nan;98885.91;2081833;28;20490;-72
2021/07/12 02:23:43;;;;;;;58.83;43.83;;;;;;;16.87;nan;98880.31;2081322;28;20451;-72
2021/07/12 02:24:45;;;;;;;58.47;44.87;;;;;;;16.84;nan;98877.50;2081055;28;20568;-72
2021/07/12 02:25:47;;;;;;;60.13;45.60;;;;;;;16.85;nan;98882.59;2080817;28;20516;-71
2021/07/12 02:26:49;;;;;;;62.30;45.53;;;;;;;16.82;nan;98880.56;2089304;28;20221;-72
2021/07/12 02:27:52;;;;;;;68.13;47.07;;;;;;;16.78;nan;98885.06;2089049;28;20449;-72
2021/07/12 02:28:53;;;;;;;66.77;46.93;;;;;;;16.72;nan;98875.66;2080491;28;20997;-72
2021/07/12 02:29:56;;;;;;;71.23;47.20;;;;;;;16.73;nan;98879.91;2089099;28;20866;-73
2021/07/12 02:30:58;;;;;;;62.63;45.43;;;;;;;16.72;nan;98885.63;2089116;28;20234;-72
2021/07/12 02:32:00;;;;;;;58.07;44.03;;;;;;;16.72;nan;98891.03;2080876;28;20442;-72
2021/07/12 02:33:08;;;;;;;51.40;42.37;;;;;;;16.87;nan;98883.03;2081338;28;20875;-72
2021/07/12 02:34:10;;;;;;;58.70;44.70;;;;;;;16.94;nan;98885.91;2080915;28;20457;-71
2021/07/12 02:35:18;;;;;;;55.43;44.27;;;;;;;17.04;nan;98889.25;2081826;28;20449;-72
2021/07/12 02:36:23;;;;;;;60.50;45.38;;;;;;;16.98;nan;98885.22;2089146;28;21006;-72
2021/07/12 02:37:27;;;;;;;56.50;44.73;;;;;;;16.95;nan;98882.09;2080926;28;20697;-72
2021/07/12 02:38:29;;;;;;;56.60;43.97;;;;;;;16.89;nan;98879.97;2089250;28;20449;-72
2021/07/12 02:39:33;;;;;;;53.23;42.80;;;;;;;16.97;nan;98872.88;2089049;28;20932;-72
2021/07/12 02:40:38;;;;;;;58.53;43.93;;;;;;;16.97;nan;98876.34;2088804;28;20492;-72
2021/07/12 02:41:43;;;;;;;53.47;42.97;;;;;;;17.07;nan;98875.88;2089071;28;20545;-72
2021/07/12 02:42:48;;;;;;;55.00;44.27;;;;;;;17.05;nan;98872.75;2088988;28;20464;-72
2021/07/12 02:43:52;;;;;;;54.43;41.93;;;;;;;17.01;nan;98881.84;2088854;28;20449;-72
2021/07/12 02:44:58;;;;;;;52.87;41.13;;;;;;;16.98;nan;98871.75;2081045;28;20501;-72
2021/07/12 02:46:00;;;;;;;55.27;43.07;;;;;;;16.95;nan;98873.22;2089049;28;20499;-71
2021/07/12 02:47:04;;;;;;;57.17;42.30;;;;;;;16.94;nan;98877.06;2089284;28;20472;-71
2021/07/12 02:48:09;;;;;;;55.27;41.30;;;;;;;16.89;nan;98880.75;2076819;28;20454;-72
2021/07/12 02:49:15;;;;;;;50.33;41.13;;;;;;;16.89;nan;98872.69;2081147;28;20976;-72
2021/07/12 02:50:22;;;;;;;55.73;45.07;;;;;;;16.86;nan;98875.28;2081470;28;20464;-72
2021/07/12 02:51:28;;;;;;;54.87;42.87;;;;;;;16.80;nan;98874.72;2080796;28;20474;-71
2021/07/12 02:52:34;;;;;;;56.07;43.40;;;;;;;16.86;nan;98878.75;2089039;28;20927;-72
2021/07/12 02:53:39;;;;;;;48.40;41.57;;;;;;;16.83;nan;98884.81;2089073;28;20462;-72
2021/07/12 02:54:42;;;;;;;48.93;40.50;;;;;;;16.89;nan;98886.16;2080875;28;20975;-72
2021/07/12 02:55:45;;;;;;;47.10;40.53;;;;;;;16.95;nan;98890.19;2088927;28;20454;-72
2021/07/12 02:56:50;;;;;;;53.97;43.10;;;;;;;16.94;nan;98888.63;2081109;28;20513;-72
2021/07/12 02:57:52;;;;;;;50.70;42.00;;;;;;;16.90;nan;98893.09;2080433;28;20496;-73
2021/07/12 02:58:54;;;;;;;49.90;42.63;;;;;;;16.81;nan;98892.47;2088869;28;20807;-72
2021/07/12 02:59:57;;;;;;;51.57;40.47;;;;;;;16.73;nan;98898.78;2088847;28;20457;-72
2021/07/12 03:00:59;;;;;;;51.13;39.67;;;;;;;16.78;nan;98901.25;2080535;28;20457;-73
2021/07/12 03:02:02;;;;;;;47.97;40.57;;;;;;;16.80;nan;98909.75;2088901;28;20880;-72
2021/07/12 03:03:04;;;;;;;47.70;40.47;;;;;;;16.76;nan;98908.06;2080577;28;20454;-72
2021/07/12 03:04:05;;;;;;;49.07;42.30;;;;;;;16.73;nan;98908.75;2080705;28;20793;-72
2021/07/12 03:05:09;;;;;;;47.33;41.73;;;;;;;16.69;nan;98903.28;2088930;28;20480;-72
2021/07/12 03:06:15;;;;;;;49.20;39.23;;;;;;;16.66;nan;98904.69;2088296;28;20310;-71
2021/07/12 03:07:20;;;;;;;46.67;38.17;;;;;;;16.74;nan;98899.56;2088883;28;20453;-72
2021/07/12 03:08:25;;;;;;;44.70;39.70;;;;;;;16.77;nan;98899.66;2080796;28;20804;-72
2021/07/12 03:09:32;;;;;;;48.63;38.53;;;;;;;16.84;nan;98899.06;2088578;28;20622;-72
2021/07/12 03:10:38;;;;;;;48.80;38.30;;;;;;;16.83;nan;98892.91;2088377;28;20456;-72
2021/07/12 03:11:42;;;;;;;48.17;38.60;;;;;;;16.93;nan;98897.81;2080688;28;20883;-72
2021/07/12 03:12:47;;;;;;;47.43;38.67;;;;;;;16.88;nan;98895.38;2088704;28;20495;-73
2021/07/12 03:13:53;;;;;;;44.93;37.13;;;;;;;16.89;nan;98891.53;2080742;28;20458;-72
2021/07/12 03:15:00;;;;;;;47.83;38.67;;;;;;;16.86;nan;98892.25;2088345;28;20523;-72
2021/07/12 03:16:03;;;;;;;42.87;36.53;;;;;;;16.82;nan;98902.09;2088684;28;20449;-72
2021/07/12 03:17:05;;;;;;;50.30;38.43;;;;;;;16.84;nan;98897.16;2088815;28;20457;-72
2021/07/12 03:18:11;;;;;;;50.85;38.00;;;;;;;16.78;nan;98903.16;2089689;28;20865;-72
2021/07/12 03:19:15;;;;;;;48.85;38.38;;;;;;;16.71;nan;98911.81;2088392;28;20626;-72
2021/07/12 03:20:18;;;;;;;44.73;38.47;;;;;;;16.76;nan;98908.84;2088633;28;20301;-72
2021/07/12 03:21:23;;;;;;;46.70;37.53;;;;;;;16.75;nan;98911.91;2088694;28;20504;-72
2021/07/12 03:22:25;;;;;;;44.60;37.55;;;;;;;16.70;nan;98909.44;2080408;28;20595;-73
2021/07/12 03:23:27;;;;;;;45.22;36.70;;;;;;;16.71;nan;98911.81;2088450;28;20647;-71
2021/07/12 03:24:31;;;;;;;42.57;34.83;;;;;;;16.74;nan;98904.94;2080508;28;20298;-72
2021/07/12 03:25:34;;;;;;;39.33;34.67;;;;;;;16.78;nan;98912.00;2088624;28;20461;-72
2021/07/12 03:26:41;;;;;;;42.60;35.17;;;;;;;16.75;nan;98912.69;2080750;28;20853;-72
2021/07/12 03:27:42;;;;;;;43.15;35.70;;;;;;;16.71;nan;98906.41;2080685;28;20855;-72
2021/07/12 03:28:44;;;;;;;45.80;36.83;;;;;;;16.66;nan;98906.59;2088719;28;20242;-72
2021/07/12 03:29:47;;;;;;;47.13;37.27;;;;;;;16.61;nan;98906.84;2088648;28;20485;-73
2021/07/12 03:30:49;;;;;;;48.47;36.97;;;;;;;16.56;nan;98904.38;2080259;28;20815;-72
2021/07/12 03:31:51;;;;;;;42.60;36.17;;;;;;;16.50;nan;98898.44;2088649;28;20223;-72
2021/07/12 03:32:53;;;;;;;43.83;36.25;;;;;;;16.44;nan;98902.50;2089133;28;20296;-73
2021/07/12 03:33:57;;;;;;;45.70;36.33;;;;;;;16.40;nan;98899.69;2088619;28;20218;-72
2021/07/12 03:34:59;;;;;;;46.38;37.10;;;;;;;16.38;nan;98906.53;2088690;28;20453;-72
2021/07/12 03:36:03;;;;;;;39.93;35.47;;;;;;;16.37;nan;98911.13;2080684;28;20306;-71
2021/07/12 03:37:06;;;;;;;42.53;34.55;;;;;;;16.34;nan;98909.13;2080457;28;20461;-72
2021/07/12 03:38:08;;;;;;;40.05;35.67;;;;;;;16.32;nan;98910.56;2088116;28;20222;-72
2021/07/12 03:39:11;;;;;;;39.73;34.97;;;;;;;16.31;nan;98898.22;2088495;28;20310;-72
2021/07/12 03:40:13;;;;;;;39.10;34.90;;;;;;;16.29;nan;98906.66;2080665;28;20450;-72
2021/07/12 03:41:16;;;;;;;39.33;34.85;;;;;;;16.30;nan;98913.59;2080486;28;20458;-72
2021/07/12 03:42:19;;;;;;;38.07;34.27;;;;;;;16.45;nan;98911.34;2088554;28;20257;-72
2021/07/12 03:43:22;;;;;;;38.33;34.23;;;;;;;16.50;nan;98905.72;2080611;28;20455;-72
2021/07/12 03:44:26;;;;;;;37.70;33.90;;;;;;;16.55;nan;98908.19;2080200;28;20800;-72
2021/07/12 03:45:27;;;;;;;38.40;34.17;;;;;;;16.66;nan;98901.22;2088778;28;20292;-73
2021/07/12 03:46:28;;;;;;;37.40;33.60;;;;;;;16.67;nan;98910.88;2088395;28;20677;-72
2021/07/12 03:47:33;;;;;;;38.90;34.70;;;;;;;16.63;nan;98905.38;2080537;28;20945;-72
2021/07/12 03:48:39;;;;;;;41.08;34.22;;;;;;;16.61;nan;98906.84;2080547;28;20936;-73
2021/07/12 03:49:41;;;;;;;38.37;34.43;;;;;;;16.59;nan;98903.69;2088381;28;20230;-72
2021/07/12 03:50:43;;;;;;;36.90;32.95;;;;;;;16.60;nan;98905.28;2088463;28;20449;-72
2021/07/12 03:51:47;;;;;;;38.10;33.97;;;;;;;16.61;nan;98906.84;2080211;28;20230;-72
2021/07/12 03:52:52;;;;;;;38.20;34.10;;;;;;;16.61;nan;98906.84;2088582;28;20226;-72
2021/07/12 03:53:54;;;;;;;37.30;33.30;;;;;;;16.57;nan;98912.13;2088849;28;20465;-72
2021/07/12 03:54:55;;;;;;;39.35;34.50;;;;;;;16.58;nan;98912.91;2089247;28;20292;-72
2021/07/12 03:55:56;;;;;;;36.10;32.47;;;;;;;16.56;nan;98910.56;2089265;28;20280;-72
2021/07/12 03:56:57;;;;;;;37.53;33.37;;;;;;;16.55;nan;98900.13;2089182;28;20231;-72
2021/07/12 03:58:01;;;;;;;39.10;32.57;;;;;;;16.67;nan;98895.47;2088286;28;21056;-72
2021/07/12 03:59:02;;;;;;;35.90;32.40;;;;;;;16.76;nan;98902.69;2088499;28;20562;-72
2021/07/12 04:00:07;;;;;;;36.70;32.70;;;;;;;16.76;nan;98900.78;2089190;28;20553;-72
2021/07/12 04:01:19;;;;;;;37.30;32.40;;;;;;;16.79;nan;98904.72;2088783;28;20226;-72
2021/07/12 04:02:20;;;;;;;36.47;32.67;;;;;;;16.79;nan;98902.81;2088205;28;20442;-72
2021/07/12 04:03:21;;;;;;;36.60;32.03;;;;;;;16.82;nan;98906.72;2088381;28;20574;-72
2021/07/12 04:04:23;;;;;;;37.53;33.50;;;;;;;16.81;nan;98894.38;2088709;28;21048;-72
2021/07/12 04:05:24;;;;;;;36.43;32.60;;;;;;;16.83;nan;98903.69;2088543;28;20226;-72
2021/07/12 04:06:28;;;;;;;37.57;32.90;;;;;;;16.82;nan;98902.09;2088206;28;20794;-72
2021/07/12 04:07:28;;;;;;;37.90;33.47;;;;;;;16.83;nan;98898.28;2089295;28;20822;-72
2021/07/12 04:08:31;;;;;;;39.83;33.97;;;;;;;16.85;nan;98892.56;2089127;28;20575;-72
2021/07/12 04:09:32;;;;;;;41.50;33.27;;;;;;;16.86;nan;98908.41;2089122;28;20226;-72
2021/07/12 04:10:34;;;;;;;37.73;33.07;;;;;;;16.88;nan;98900.75;2089006;28;20540;-73
2021/07/12 04:11:35;;;;;;;38.70;34.57;;;;;;;16.89;nan;98898.84;2089043;28;20557;-72
2021/07/12 04:12:37;;;;;;;40.97;33.63;;;;;;;16.89;nan;98898.84;2089128;28;20902;-72
2021/07/12 04:13:37;;;;;;;37.67;33.60;;;;;;;16.91;nan;98897.38;2088515;28;20230;-72
2021/07/12 04:14:39;;;;;;;39.13;33.63;;;;;;;16.93;nan;98897.81;2089147;28;20485;-72
2021/07/12 04:15:40;;;;;;;38.20;34.07;;;;;;;16.93;nan;98903.19;2088988;28;20226;-72
2021/07/12 04:16:42;;;;;;;39.17;33.47;;;;;;;16.98;nan;98902.19;2088174;28;20446;-72
2021/07/12 04:17:44;;;;;;;37.37;33.33;;;;;;;17.01;nan;98903.41;2088391;28;20511;-72
2021/07/12 04:18:45;;;;;;;40.17;33.17;;;;;;;17.04;nan;98908.91;2089099;28;20449;-72
2021/07/12 04:19:46;;;;;;;39.87;34.53;;;;;;;17.06;nan;98900.47;2088390;28;20453;-72
2021/07/12 04:20:49;;;;;;;38.87;34.63;;;;;;;17.12;nan;98902.59;2088408;28;20461;-71
2021/07/12 04:21:49;;;;;;;40.43;34.60;;;;;;;17.14;nan;98903.03;2089174;28;20453;-72
2021/07/12 04:22:51;;;;;;;41.10;33.40;;;;;;;17.16;nan;98900.78;2088977;28;20465;-72
2021/07/12 04:23:53;;;;;;;40.20;35.20;;;;;;;17.18;nan;98897.72;2087785;28;20268;-73
2021/07/12 04:24:55;;;;;;;39.73;33.47;;;;;;;17.22;nan;98904.00;2087960;28;20434;-72
2021/07/12 04:25:55;;;;;;;42.73;35.00;;;;;;;17.26;nan;98902.19;2088594;28;20460;-72
2021/07/12 04:26:57;;;;;;;38.57;34.43;;;;;;;17.28;nan;98910.72;2088882;28;21702;-72
2021/07/12 04:27:58;;;;;;;44.53;35.43;;;;;;;17.32;nan;98906.22;2088939;28;20218;-72
2021/07/12 04:29:01;;;;;;;42.83;34.80;;;;;;;17.32;nan;98908.13;2088201;28;20446;-71
2021/07/12 04:30:02;;;;;;;45.60;37.57;;;;;;;17.32;nan;98917.00;2088216;28;20222;-71
2021/07/12 04:31:04;;;;;;;47.00;38.30;;;;;;;17.32;nan;98908.13;2089172;28;20795;-71
2021/07/12 04:32:05;;;;;;;46.63;39.00;;;;;;;17.33;nan;98917.78;2088901;28;20446;-72
2021/07/12 04:33:07;;;;;;;51.07;40.47;;;;;;;17.30;nan;98915.78;2088264;28;20822;-71
2021/07/12 04:34:08;;;;;;;44.93;39.83;;;;;;;17.29;nan;98917.69;2079539;28;20572;-72
2021/07/12 04:35:11;;;;;;;53.13;39.23;;;;;;;17.30;nan;98924.66;2088122;28;20453;-72
2021/07/12 04:36:13;;;;;;;57.83;39.23;;;;;;;17.30;nan;98921.97;2088233;28;20231;-72
2021/07/12 04:37:14;;;;;;;46.87;40.03;;;;;;;17.28;nan;98923.41;2088963;28;20935;-72
2021/07/12 04:38:15;;;;;;;52.07;41.37;;;;;;;17.24;nan;98918.72;2088843;28;20449;-72
2021/07/12 04:39:18;;;;;;;51.20;41.00;;;;;;;17.28;nan;98923.41;2088786;28;20488;-72
2021/07/12 04:40:19;;;;;;;55.50;38.83;;;;;;;17.29;nan;98925.78;2088774;28;20222;-71
2021/07/12 04:41:21;;;;;;;46.37;40.07;;;;;;;17.35;nan;98932.47;2088882;28;20449;-72
2021/07/12 04:42:21;;;;;;;49.87;39.43;;;;;;;17.40;nan;98939.56;2088906;28;20222;-72
2021/07/12 04:43:23;;;;;;;46.27;37.37;;;;;;;17.45;nan;98933.91;2088544;28;20997;-72
2021/07/12 04:44:24;;;;;;;46.10;36.47;;;;;;;17.54;nan;98937.22;2088432;28;20318;-72
2021/07/12 04:45:27;;;;;;;45.73;37.93;;;;;;;17.63;nan;98937.06;2088126;28;20461;-72
2021/07/12 04:46:28;;;;;;;46.70;37.30;;;;;;;17.68;nan;98940.31;2088973;28;20253;-72
2021/07/12 04:47:31;;;;;;;48.03;38.20;;;;;;;17.74;nan;98940.88;2088560;28;20452;-72
2021/07/12 04:48:32;;;;;;;45.60;37.50;;;;;;;17.73;nan;98944.72;2088785;28;20272;-72
2021/07/12 04:49:34;;;;;;;42.03;37.23;;;;;;;17.71;nan;98944.25;2088016;28;20457;-72
2021/07/12 04:50:35;;;;;;;48.63;37.50;;;;;;;17.68;nan;98945.72;2088150;28;20231;-72
2021/07/12 04:51:40;;;;;;;46.60;38.37;;;;;;;17.71;nan;98952.34;2087689;28;20464;-72
2021/07/12 04:52:46;;;;;;;42.10;36.83;;;;;;;17.77;nan;98945.56;2080435;28;20476;-72
2021/07/12 04:53:47;;;;;;;46.73;38.37;;;;;;;17.78;nan;98944.44;2088070;28;20476;-72
2021/07/12 04:54:50;;;;;;;47.17;40.50;;;;;;;17.74;nan;98940.88;2088151;28;20360;-72
2021/07/12 04:55:51;;;;;;;47.90;38.50;;;;;;;17.76;nan;98939.41;2088001;28;20445;-72
2021/07/12 04:56:52;;;;;;;43.50;38.43;;;;;;;17.68;nan;98931.44;2087746;28;20446;-73
2021/07/12 04:57:54;;;;;;;45.37;39.43;;;;;;;17.69;nan;98933.00;2088888;28;20453;-73
2021/07/12 04:58:56;;;;;;;43.97;37.43;;;;;;;17.73;nan;98932.00;2088802;28;20234;-72
2021/07/12 04:59:57;;;;;;;45.80;39.00;;;;;;;17.75;nan;98928.94;2088756;28;20518;-72
2021/07/12 05:00:58;;;;;;;39.03;34.83;;;;;;;17.70;nan;98929.19;2088803;28;20944;-72
2021/07/12 05:02:00;;;;;;;41.40;37.10;;;;;;;17.74;nan;98930.09;2088704;28;20496;-72
2021/07/12 05:03:02;;;;;;;41.13;35.50;;;;;;;17.76;nan;98931.31;2087905;28;20223;-72